createdAt,value
2022-11-04T00:01:46.596Z,99548.94
2022-11-04T00:04:15.104Z,99535.09
2022-11-04T00:06:41.731Z,99563.56
2022-11-04T00:09:11.662Z,99567.63
2022-11-04T00:11:56.695Z,99527.84
2022-11-04T00:14:23.065Z,99562.88
2022-11-04T00:17:07.999Z,99558.91
2022-11-04T00:20:12.495Z,99525.41
2022-11-04T00:23:00.254Z,99571.91
2022-11-04T00:25:45.389Z,99522.56
2022-11-04T00:28:31.647Z,99581.19
2022-11-04T00:31:23.228Z,99576.72
2022-11-04T00:33:51.080Z,99515.97
2022-11-04T00:36:17.621Z,99563.63
2022-11-04T00:38:43.977Z,99529.34
2022-11-04T00:41:29.963Z,99559.69
2022-11-04T00:44:02.412Z,99602.16
2022-11-04T00:46:30.622Z,99617.34
2022-11-04T00:48:57.718Z,99590.91
2022-11-04T00:51:24.587Z,99601.03
2022-11-04T00:53:51.825Z,99629.81
2022-11-04T00:56:18.117Z,99572.78
2022-11-04T00:58:44.500Z,99605.84
2022-11-04T01:01:13.008Z,99626.00
2022-11-04T01:03:39.633Z,99617.75
2022-11-04T01:06:06.841Z,99594.31
2022-11-04T01:08:33.350Z,99609.66
2022-11-04T01:11:03.972Z,99607.81
2022-11-04T01:13:30.941Z,99603.47
2022-11-04T01:16:01.581Z,99590.19
2022-11-04T01:18:27.951Z,99596.13
2022-11-04T01:20:54.379Z,99592.34
2022-11-04T01:23:21.056Z,99574.28
2022-11-04T01:25:47.381Z,99633.69
2022-11-04T01:28:13.704Z,99634.41
2022-11-04T01:30:40.097Z,99619.13
2022-11-04T01:33:06.466Z,99633.81
2022-11-04T01:35:32.819Z,99619.84
2022-11-04T01:37:59.284Z,99655.31
2022-11-04T01:40:25.748Z,99622.22
2022-11-04T01:42:52.367Z,99642.47
2022-11-04T01:45:21.235Z,99663.38
2022-11-04T01:48:00.951Z,99643.81
2022-11-04T01:50:30.829Z,99646.94
2022-11-04T01:53:07.319Z,99678.19
2022-11-04T01:55:37.441Z,99620.25
2022-11-04T01:58:11.066Z,99646.66
2022-11-04T02:00:42.052Z,99640.22
2022-11-04T02:03:38.221Z,99675.16
2022-11-04T02:06:05.892Z,99654.72
2022-11-04T02:08:32.520Z,99645.78
2022-11-04T02:11:01.152Z,99684.88
2022-11-04T02:13:30.222Z,99654.19
2022-11-04T02:16:15.371Z,99675.16
2022-11-04T02:18:58.789Z,99680.13
2022-11-04T02:21:53.479Z,99676.59
2022-11-04T02:24:38.237Z,99671.47
2022-11-04T02:27:10.596Z,99672.94
2022-11-04T02:30:13.602Z,99681.44
2022-11-04T02:33:11.679Z,99621.91
2022-11-04T02:35:38.139Z,99682.03
2022-11-04T02:38:24.719Z,99675.75
2022-11-04T02:41:14.340Z,99672.66
2022-11-04T02:44:12.335Z,99671.06
2022-11-04T02:46:41.792Z,99666.81
2022-11-04T02:49:15.605Z,99632.00
2022-11-04T02:52:01.107Z,99664.63
2022-11-04T02:54:34.513Z,99638.88
2022-11-04T02:57:03.567Z,99644.91
2022-11-04T02:59:36.315Z,99639.78
2022-11-04T03:02:07.976Z,99616.53
2022-11-04T03:04:39.294Z,99577.25
2022-11-04T03:09:46.162Z,99569.31
2022-11-04T03:12:16.867Z,99618.72
2022-11-04T03:14:49.908Z,99600.09
2022-11-04T03:17:26.683Z,99597.44
2022-11-04T03:19:57.310Z,99621.41
2022-11-04T03:22:28.203Z,99660.34
2022-11-04T03:24:55.109Z,99622.47
2022-11-04T03:27:27.519Z,99653.41
2022-11-04T03:30:06.452Z,99663.75
2022-11-04T03:32:32.781Z,99656.44
2022-11-04T03:34:59.433Z,99648.03
2022-11-04T03:37:25.874Z,99632.81
2022-11-04T03:39:52.293Z,99633.53
2022-11-04T03:42:20.543Z,99634.53
2022-11-04T03:44:53.128Z,99634.72
2022-11-04T03:47:23.046Z,99656.38
2022-11-04T03:49:51.118Z,99664.47
2022-11-04T03:52:19.003Z,99612.47
2022-11-04T03:54:46.564Z,99640.38
2022-11-04T03:57:29.629Z,99662.06
2022-11-04T04:00:02.981Z,99679.63
2022-11-04T04:02:59.880Z,99588.75
2022-11-04T04:05:31.964Z,99628.47
2022-11-04T04:08:26.723Z,99664.88
2022-11-04T04:11:05.736Z,99651.72
2022-11-04T04:13:55.630Z,99656.47
2022-11-04T04:16:34.422Z,99636.63
2022-11-04T04:19:21.170Z,99666.78
2022-11-04T04:21:53.653Z,99630.19
2022-11-04T04:24:42.045Z,99634.63
2022-11-04T04:27:27.824Z,99651.78
2022-11-04T04:29:54.601Z,99672.38
2022-11-04T04:32:24.615Z,99652.78
2022-11-04T04:34:50.968Z,99661.72
2022-11-04T04:37:23.817Z,99633.50
2022-11-04T04:40:12.863Z,99662.66
2022-11-04T04:42:58.066Z,99649.41
2022-11-04T04:45:32.845Z,99680.25
2022-11-04T04:47:59.585Z,99613.06
2022-11-04T04:50:31.277Z,99675.91
2022-11-04T04:53:00.043Z,99678.28
2022-11-04T04:55:26.730Z,99691.66
2022-11-04T04:57:53.063Z,99669.72
2022-11-04T05:00:21.095Z,99674.84
2022-11-04T05:02:48.898Z,99650.22
2022-11-04T05:07:47.970Z,99656.59
2022-11-04T05:10:16.008Z,99632.44
2022-11-04T05:13:14.935Z,99706.72
2022-11-04T05:15:41.242Z,99661.44
2022-11-04T05:18:08.049Z,99677.75
2022-11-04T05:20:38.176Z,99706.88
2022-11-04T05:23:04.539Z,99682.91
2022-11-04T05:25:30.873Z,99679.03
2022-11-04T05:28:01.833Z,99655.22
2022-11-04T05:30:28.909Z,99657.34
2022-11-04T05:32:58.533Z,99657.44
2022-11-04T05:35:28.056Z,99604.56
2022-11-04T05:37:56.355Z,99701.88
2022-11-04T05:40:23.702Z,99652.13
2022-11-04T05:42:50.050Z,99648.69
2022-11-04T05:45:16.642Z,99682.97
2022-11-04T05:47:43.092Z,99662.19
2022-11-04T05:50:09.644Z,99655.06
2022-11-04T05:52:35.994Z,99601.78
2022-11-04T05:55:02.310Z,99622.94
2022-11-04T05:57:28.679Z,99705.25
2022-11-04T05:59:55.120Z,99613.25
2022-11-04T06:02:21.552Z,99711.50
2022-11-04T06:04:48.169Z,99722.47
2022-11-04T06:07:14.689Z,99720.94
2022-11-04T06:09:41.336Z,99695.34
2022-11-04T06:12:09.701Z,99732.09
2022-11-04T06:14:36.150Z,99675.81
2022-11-04T06:17:02.691Z,99730.69
2022-11-04T06:19:29.108Z,99726.59
2022-11-04T06:21:55.557Z,99684.03
2022-11-04T06:24:21.889Z,99721.59
2022-11-04T06:26:48.240Z,99738.53
2022-11-04T06:29:14.527Z,99719.78
2022-11-04T06:31:40.888Z,99741.13
2022-11-04T06:34:07.247Z,99725.66
2022-11-04T06:36:33.563Z,99725.84
2022-11-04T06:39:04.415Z,99720.56
2022-11-04T06:41:33.603Z,99701.13
2022-11-04T06:44:00.178Z,99735.22
2022-11-04T06:46:29.180Z,99757.44
2022-11-04T06:48:57.000Z,99739.00
2022-11-04T06:51:24.341Z,99723.72
2022-11-04T06:53:50.872Z,99736.72
2022-11-04T06:56:17.517Z,99735.81
2022-11-04T06:58:46.906Z,99723.09
2022-11-04T07:01:18.583Z,99711.34
2022-11-04T07:03:52.826Z,99722.34
2022-11-04T07:06:20.324Z,99784.81
2022-11-04T07:08:48.047Z,99765.25
2022-11-04T07:11:15.301Z,99750.59
2022-11-04T07:13:41.747Z,99766.16
2022-11-04T07:16:08.928Z,99728.16
2022-11-04T07:18:35.767Z,99775.13
2022-11-04T07:21:08.625Z,99769.81
2022-11-04T07:23:36.218Z,99780.06
2022-11-04T07:26:03.757Z,99780.59
2022-11-04T07:28:30.216Z,99782.41
2022-11-04T07:30:58.396Z,99774.41
2022-11-04T07:33:25.983Z,99799.78
2022-11-04T07:35:57.055Z,99803.09
2022-11-04T07:38:24.669Z,99792.84
2022-11-04T07:40:50.959Z,99741.53
2022-11-04T07:43:17.351Z,99784.19
2022-11-04T07:45:43.907Z,99799.47
2022-11-04T07:48:10.865Z,99793.47
2022-11-04T07:50:40.647Z,99809.72
2022-11-04T07:53:07.892Z,99809.50
2022-11-04T07:55:43.047Z,99852.31
2022-11-04T07:58:10.017Z,99754.03
2022-11-04T08:00:36.363Z,99804.81
2022-11-04T08:03:03.055Z,99827.16
2022-11-04T08:05:29.497Z,99851.88
2022-11-04T08:07:57.569Z,99834.69
2022-11-04T08:10:23.930Z,99806.47
2022-11-04T08:12:51.681Z,99856.75
2022-11-04T08:15:18.427Z,99851.63
2022-11-04T08:17:44.962Z,99849.44
2022-11-04T08:20:11.935Z,99869.84
2022-11-04T08:22:39.015Z,99818.25
2022-11-04T08:25:06.100Z,99819.72
2022-11-04T08:27:33.772Z,99856.31
2022-11-04T08:30:00.098Z,99869.22
2022-11-04T08:32:26.473Z,99865.56
2022-11-04T08:34:52.784Z,99844.84
2022-11-04T08:37:19.107Z,99827.59
2022-11-04T08:39:45.405Z,99813.91
2022-11-04T08:42:11.718Z,99785.47
2022-11-04T08:44:39.633Z,99853.81
2022-11-04T08:47:06.270Z,99876.19
2022-11-04T08:49:36.936Z,99841.88
2022-11-04T08:52:03.857Z,99873.44
2022-11-04T08:54:30.390Z,99807.13
2022-11-04T08:56:56.730Z,99840.44
2022-11-04T08:59:24.872Z,99871.41
2022-11-04T09:01:51.324Z,99886.38
2022-11-04T09:04:19.493Z,99864.31
2022-11-04T09:06:46.607Z,99888.88
2022-11-04T09:09:15.372Z,99892.41
2022-11-04T09:11:43.537Z,99874.03
2022-11-04T09:14:10.847Z,99901.94
2022-11-04T09:16:39.966Z,99916.22
2022-11-04T09:19:07.123Z,99881.31
2022-11-04T09:21:33.665Z,99872.63
2022-11-04T09:23:59.972Z,99897.72
2022-11-04T09:26:26.790Z,99891.31
2022-11-04T09:28:54.903Z,99916.69
2022-11-04T09:31:21.639Z,99910.47
2022-11-04T09:33:48.037Z,99879.09
2022-11-04T09:36:14.465Z,99890.94
2022-11-04T09:38:42.583Z,99906.84
2022-11-04T09:41:46.349Z,99925.22
2022-11-04T09:44:23.620Z,99921.44
2022-11-04T09:46:52.016Z,99917.09
2022-11-04T09:49:18.619Z,99876.91
2022-11-04T09:51:55.923Z,99866.16
2022-11-04T09:54:47.482Z,99922.75
2022-11-04T09:57:17.998Z,99923.13
2022-11-04T09:59:45.656Z,99934.00
2022-11-04T10:02:33.894Z,99932.03
2022-11-04T10:05:15.290Z,99897.78
2022-11-04T10:08:11.913Z,99910.75
2022-11-04T10:11:16.016Z,99908.78
2022-11-04T10:13:58.936Z,99867.34
2022-11-04T10:16:45.039Z,99894.28
2022-11-04T10:19:40.915Z,99905.34
2022-11-04T10:22:31.107Z,99888.41
2022-11-04T10:25:14.159Z,99925.09
2022-11-04T10:27:44.819Z,99921.78
2022-11-04T10:30:17.249Z,99924.28
2022-11-04T10:33:11.570Z,99909.69
2022-11-04T10:35:42.519Z,99912.94
2022-11-04T10:38:17.547Z,99891.94
2022-11-04T10:40:48.602Z,99901.00
2022-11-04T10:43:21.077Z,99921.59
2022-11-04T10:46:20.318Z,99943.38
2022-11-04T10:49:02.865Z,99941.09
2022-11-04T10:51:29.206Z,99922.69
2022-11-04T10:53:58.579Z,99929.00
2022-11-04T10:56:39.519Z,99919.63
2022-11-04T10:59:23.266Z,99896.19
2022-11-04T11:01:52.951Z,99921.00
2022-11-04T11:04:31.345Z,99916.59
2022-11-04T11:06:59.272Z,99944.94
2022-11-04T11:09:53.389Z,99950.44
2022-11-04T11:12:49.985Z,99963.47
2022-11-04T11:15:35.559Z,99960.78
2022-11-04T11:18:08.070Z,99966.22
2022-11-04T11:20:37.819Z,99941.31
2022-11-04T11:23:09.726Z,99932.78
2022-11-04T11:25:49.910Z,99962.69
2022-11-04T11:28:25.009Z,99976.66
2022-11-04T11:30:52.231Z,99960.72
2022-11-04T11:33:28.300Z,99978.66
2022-11-04T11:36:06.804Z,99996.94
2022-11-04T11:38:34.675Z,99977.25
2022-11-04T11:41:25.224Z,99981.69
2022-11-04T11:43:53.754Z,100001.19
2022-11-04T11:46:25.570Z,100005.16
2022-11-04T11:48:55.343Z,99977.47
2022-11-04T11:51:34.978Z,100011.78
2022-11-04T11:54:49.236Z,100009.13
2022-11-04T12:00:49.234Z,100005.59
2022-11-04T12:03:31.108Z,99983.25
2022-11-04T12:09:34.663Z,100017.75
2022-11-04T12:12:13.622Z,100018.53
2022-11-04T12:15:09.670Z,100019.03
2022-11-04T12:18:08.250Z,100018.41
2022-11-04T12:21:06.941Z,100005.88
2022-11-04T12:23:42.259Z,100013.28
2022-11-04T12:26:20.651Z,100024.22
2022-11-04T12:29:11.789Z,99998.03
2022-11-04T12:32:17.026Z,100021.53
2022-11-04T12:34:45.339Z,100031.84
2022-11-04T12:37:38.232Z,100014.09
2022-11-04T12:40:41.480Z,100032.19
2022-11-04T12:43:16.644Z,100025.94
2022-11-04T12:45:57.696Z,100029.47
2022-11-04T12:48:30.843Z,100000.66
2022-11-04T12:51:13.480Z,100039.31
2022-11-04T12:54:24.503Z,100047.13
2022-11-04T12:57:08.212Z,100024.44
2022-11-04T12:59:43.155Z,100045.41
2022-11-04T13:02:21.479Z,100048.31
2022-11-04T13:05:26.505Z,100043.22
2022-11-04T13:08:14.602Z,100052.25
2022-11-04T13:11:02.294Z,100058.09
2022-11-04T13:13:39.473Z,100042.13
2022-11-04T13:16:11.979Z,100040.72
2022-11-04T13:18:40.337Z,100041.34
2022-11-04T13:21:18.607Z,100051.44
2022-11-04T13:23:51.511Z,100063.78
2022-11-04T13:26:18.614Z,100030.06
2022-11-04T13:28:56.166Z,100026.78
2022-11-04T13:31:43.771Z,100070.31
2022-11-04T13:34:13.520Z,100078.56
2022-11-04T13:36:58.280Z,100074.59
2022-11-04T13:39:29.368Z,100083.41
2022-11-04T13:42:08.132Z,100050.91
2022-11-04T13:44:39.911Z,100037.88
2022-11-04T13:47:24.821Z,100069.47
2022-11-04T13:49:55.333Z,100062.25
2022-11-04T13:52:33.316Z,100063.19
2022-11-04T13:55:07.033Z,100098.94
2022-11-04T13:57:50.727Z,100095.38
2022-11-04T14:00:16.970Z,100109.22
2022-11-04T14:02:52.154Z,100115.03
2022-11-04T14:05:27.385Z,100112.31
2022-11-04T14:08:02.806Z,100111.88
2022-11-04T14:10:50.819Z,100116.31
2022-11-04T14:13:26.389Z,100108.72
2022-11-04T14:16:00.591Z,100119.25
2022-11-04T14:18:30.922Z,100120.69
2022-11-04T14:21:09.363Z,100127.03
2022-11-04T14:23:37.681Z,100103.78
2022-11-04T14:26:10.450Z,100085.97
2022-11-04T14:28:38.461Z,100143.63
2022-11-04T14:31:12.546Z,100148.63
2022-11-04T14:33:57.036Z,100115.16
2022-11-04T14:36:23.347Z,100150.44
2022-11-04T14:39:00.728Z,100126.88
2022-11-04T14:41:30.032Z,100154.91
2022-11-04T14:43:59.779Z,100155.09
2022-11-04T14:46:30.919Z,100172.72
2022-11-04T14:49:01.175Z,100173.13
2022-11-04T14:51:33.369Z,100173.38
2022-11-04T14:54:25.465Z,100187.69
2022-11-04T14:57:07.671Z,100138.38
2022-11-04T14:59:33.976Z,100159.03
2022-11-04T15:02:00.704Z,100161.91
2022-11-04T15:04:29.548Z,100207.69
2022-11-04T15:06:58.707Z,100213.06
2022-11-04T15:09:28.769Z,100181.50
2022-11-04T15:12:25.473Z,100212.50
2022-11-04T15:14:52.333Z,100203.31
2022-11-04T15:17:21.733Z,100197.63
2022-11-04T15:19:51.900Z,100193.63
2022-11-04T15:22:19.231Z,100231.31
2022-11-04T15:24:46.328Z,100223.66
2022-11-04T15:27:17.229Z,100234.72
2022-11-04T15:30:01.158Z,100240.91
2022-11-04T15:32:28.368Z,100240.97
2022-11-04T15:34:56.533Z,100245.25
2022-11-04T15:37:25.413Z,100238.44
2022-11-04T15:39:55.174Z,100206.66
2022-11-04T15:42:37.283Z,100254.69
2022-11-04T15:45:49.958Z,100243.03
2022-11-04T15:48:31.089Z,100256.97
2022-11-04T15:51:19.278Z,100269.81
2022-11-04T15:53:55.427Z,100269.19
2022-11-04T15:56:27.433Z,100241.81
2022-11-04T15:58:55.645Z,100271.88
2022-11-04T16:01:23.043Z,100257.38
2022-11-04T16:03:57.942Z,100268.63
2022-11-04T16:07:02.671Z,100286.66
2022-11-04T16:09:29.071Z,100258.88
2022-11-04T16:12:08.797Z,100283.88
2022-11-04T16:14:35.602Z,100272.13
2022-11-04T16:17:02.034Z,100254.25
2022-11-04T16:19:30.177Z,100248.41
2022-11-04T16:22:09.520Z,100266.72
2022-11-04T16:24:39.159Z,100312.25
2022-11-04T16:27:10.837Z,100304.47
2022-11-04T16:29:39.831Z,100271.94
2022-11-04T16:32:30.021Z,100259.94
2022-11-04T16:35:00.863Z,100286.59
2022-11-04T16:37:28.238Z,100314.88
2022-11-04T16:39:54.758Z,100299.69
2022-11-04T16:42:22.069Z,100327.22
2022-11-04T16:44:51.276Z,100329.03
2022-11-04T16:47:18.877Z,100298.31
2022-11-04T16:49:45.959Z,100332.47
2022-11-04T16:52:22.973Z,100352.19
2022-11-04T16:54:49.601Z,100252.31
2022-11-04T16:57:16.541Z,100356.56
2022-11-04T16:59:43.313Z,100339.66
2022-11-04T17:02:25.393Z,100350.34
2022-11-04T17:04:52.027Z,100365.94
2022-11-04T17:07:18.365Z,100368.13
2022-11-04T17:09:44.712Z,100348.41
2022-11-04T17:12:11.199Z,100365.91
2022-11-04T17:14:37.609Z,100280.91
2022-11-04T17:17:04.832Z,100302.38
2022-11-04T17:19:34.795Z,100389.22
2022-11-04T17:22:04.154Z,100355.91
2022-11-04T17:24:30.939Z,100352.38
2022-11-04T17:26:57.387Z,100396.09
2022-11-04T17:29:23.808Z,100379.97
2022-11-04T17:31:50.367Z,100368.97
2022-11-04T17:34:16.828Z,100373.28
2022-11-04T17:36:43.161Z,100374.34
2022-11-04T17:39:09.576Z,100375.13
2022-11-04T17:41:54.489Z,100396.84
2022-11-04T17:44:20.788Z,100393.47
2022-11-04T17:46:48.703Z,100386.88
2022-11-04T17:49:17.546Z,100418.75
2022-11-04T17:51:46.987Z,100400.13
2022-11-04T17:54:13.774Z,100367.41
2022-11-04T17:56:40.852Z,100412.69
2022-11-04T17:59:08.371Z,100391.38
2022-11-04T18:01:36.588Z,100391.38
2022-11-04T18:04:03.247Z,100388.84
2022-11-04T18:06:31.960Z,100419.66
2022-11-04T18:08:59.665Z,100381.44
2022-11-04T18:11:46.558Z,100394.38
2022-11-04T18:14:16.870Z,100431.41
2022-11-04T18:16:46.041Z,100442.06
2022-11-04T18:19:13.423Z,100450.00
2022-11-04T18:21:40.372Z,100462.22
2022-11-04T18:24:07.224Z,100433.13
2022-11-04T18:26:33.636Z,100444.31
2022-11-04T18:29:01.063Z,100444.31
2022-11-04T18:31:30.666Z,100446.13
2022-11-04T18:34:02.276Z,100472.56
2022-11-04T18:36:29.800Z,100443.31
2022-11-04T18:38:56.694Z,100455.53
2022-11-04T18:41:23.040Z,100446.97
2022-11-04T18:43:49.387Z,100450.69
2022-11-04T18:46:16.787Z,100439.53
2022-11-04T18:48:48.039Z,100468.03
2022-11-04T18:51:14.500Z,100451.16
2022-11-04T18:53:40.932Z,100438.31
2022-11-04T18:56:30.782Z,100389.56
2022-11-04T18:58:57.159Z,100451.53
2022-11-04T19:01:26.445Z,100493.06
2022-11-04T19:03:53.213Z,100445.91
2022-11-04T19:06:25.833Z,100468.28
2022-11-04T19:08:55.909Z,100477.59
2022-11-04T19:11:25.685Z,100493.06
2022-11-04T19:13:54.857Z,100456.88
2022-11-04T19:16:21.811Z,100489.38
2022-11-04T19:18:49.391Z,100476.63
2022-11-04T19:21:18.821Z,100486.28
2022-11-04T19:23:45.809Z,100479.41
2022-11-04T19:26:15.084Z,100481.59
2022-11-04T19:28:48.185Z,100512.41
2022-11-04T19:31:19.287Z,100512.59
2022-11-04T19:33:47.205Z,100487.03
2022-11-04T19:36:16.188Z,100527.72
2022-11-04T19:38:43.696Z,100496.00
2022-11-04T19:41:34.569Z,100446.44
2022-11-04T19:44:02.801Z,100495.41
2022-11-04T19:46:29.433Z,100517.59
2022-11-04T19:48:56.491Z,100508.97
2022-11-04T19:51:26.620Z,100503.84
2022-11-04T19:53:57.249Z,100549.34
2022-11-04T19:56:24.291Z,100527.72
2022-11-04T19:58:50.728Z,100545.22
2022-11-04T20:01:18.488Z,100553.03
2022-11-04T20:03:45.013Z,100536.72
2022-11-04T20:06:18.687Z,100541.22
2022-11-04T20:08:54.435Z,100551.41
2022-11-04T20:11:21.068Z,100568.78
2022-11-04T20:13:48.413Z,100580.91
2022-11-04T20:16:18.341Z,100597.19
2022-11-04T20:18:47.088Z,100580.06
2022-11-04T20:21:14.611Z,100602.53
2022-11-04T20:23:41.872Z,100593.22
2022-11-04T20:26:20.398Z,100603.34
2022-11-04T20:28:47.655Z,100586.31
2022-11-04T20:31:19.354Z,100603.63
2022-11-04T20:33:48.119Z,100610.56
2022-11-04T20:36:17.178Z,100618.38
2022-11-04T20:38:43.616Z,100592.97
2022-11-04T20:41:15.343Z,100623.88
2022-11-04T20:43:41.671Z,100573.94
2022-11-04T20:46:14.520Z,100622.53
2022-11-04T20:48:40.905Z,100607.97
2022-11-04T20:51:09.744Z,100643.13
2022-11-04T20:53:36.360Z,100646.63
2022-11-04T20:56:07.541Z,100649.44
2022-11-04T20:58:35.500Z,100630.56
2022-11-04T21:01:03.677Z,100643.66
2022-11-04T21:03:30.206Z,100669.50
2022-11-04T21:05:57.176Z,100670.50
2022-11-04T21:08:24.212Z,100669.75
2022-11-04T21:10:52.188Z,100631.13
2022-11-04T21:13:18.509Z,100634.19
2022-11-04T21:15:44.842Z,100647.97
2022-11-04T21:18:12.975Z,100662.59
2022-11-04T21:20:41.778Z,100687.78
2022-11-04T21:23:12.823Z,100681.28
2022-11-04T21:25:45.512Z,100675.56
2022-11-04T21:28:13.111Z,100680.88
2022-11-04T21:30:42.877Z,100697.41
2022-11-04T21:33:09.343Z,100658.81
2022-11-04T21:35:37.307Z,100719.22
2022-11-04T21:38:05.139Z,100715.16
2022-11-04T21:40:31.733Z,100711.84
2022-11-04T21:42:58.410Z,100721.41
2022-11-04T21:45:25.128Z,100704.41
2022-11-04T21:47:51.653Z,100670.88
2022-11-04T21:50:18.511Z,100713.00
2022-11-04T21:52:45.373Z,100745.13
2022-11-04T21:55:12.190Z,100742.50
2022-11-04T21:57:38.905Z,100722.00
2022-11-04T22:00:06.916Z,100744.56
2022-11-04T22:02:42.623Z,100690.47
2022-11-04T22:05:13.978Z,100750.72
2022-11-04T22:08:01.186Z,100719.84
2022-11-04T22:10:28.785Z,100749.97
2022-11-04T22:12:55.860Z,100752.66
2022-11-04T22:15:48.465Z,100717.44
2022-11-04T22:18:15.318Z,100729.56
2022-11-04T22:20:41.627Z,100736.66
2022-11-04T22:23:08.282Z,100747.94
2022-11-04T22:25:34.848Z,100722.91
2022-11-04T22:28:01.206Z,100745.56
2022-11-04T22:30:28.021Z,100721.47
2022-11-04T22:32:54.334Z,100736.72
2022-11-04T22:35:20.849Z,100736.97
2022-11-04T22:37:47.140Z,100738.81
2022-11-04T22:40:13.469Z,100761.09
2022-11-04T22:42:39.989Z,100768.06
2022-11-04T22:45:06.589Z,100719.88
2022-11-04T22:47:32.962Z,100714.91
2022-11-04T22:49:59.324Z,100763.31
2022-11-04T22:52:25.653Z,100780.69
2022-11-04T22:54:51.969Z,100701.66
2022-11-04T22:57:18.266Z,100767.03
2022-11-04T22:59:44.636Z,100761.16
2022-11-04T23:02:11.117Z,100732.81
2022-11-04T23:04:37.775Z,100756.06
2022-11-04T23:07:04.633Z,100744.13
2022-11-04T23:09:31.827Z,100770.78
2022-11-04T23:12:16.893Z,100689.16
2022-11-04T23:14:43.255Z,100700.22
2022-11-04T23:17:39.197Z,100779.72
2022-11-04T23:20:13.049Z,100724.41
2022-11-04T23:22:57.955Z,100776.22
2022-11-04T23:25:25.154Z,100779.72
2022-11-04T23:28:12.091Z,100755.88
2022-11-04T23:30:44.956Z,100798.91
2022-11-04T23:33:14.561Z,100795.44
2022-11-04T23:36:02.896Z,100790.28
2022-11-04T23:38:29.921Z,100798.13
2022-11-04T23:41:25.953Z,100780.13
2022-11-04T23:43:52.338Z,100730.34
2022-11-04T23:46:42.704Z,100693.22
2022-11-04T23:49:31.297Z,100753.72
2022-11-04T23:52:15.980Z,100733.88
2022-11-04T23:55:01.158Z,100779.56
2022-11-04T23:57:45.982Z,100746.16
